sensor_id;sensor_type;location;lat;lon;timestamp;P1;durP1;ratioP1;P2;durP2;ratioP2
19179;SDS011;9722;48.754;8.868;2023-04-16T00:00:48;5.23;;;4.87;;
19179;SDS011;9722;48.754;8.868;2023-04-16T00:04:08;4.77;;;4.37;;
19179;SDS011;9722;48.754;8.868;2023-04-16T00:07:29;5.63;;;5.13;;
19179;SDS011;9722;48.754;8.868;2023-04-16T00:10:50;4.77;;;4.47;;
19179;SDS011;9722;48.754;8.868;2023-04-16T00:14:12;5.00;;;4.63;;
19179;SDS011;9722;48.754;8.868;2023-04-16T00:17:32;4.73;;;4.33;;
19179;SDS011;9722;48.754;8.868;2023-04-16T00:20:53;5.43;;;4.93;;
19179;SDS011;9722;48.754;8.868;2023-04-16T00:24:13;4.37;;;4.07;;
19179;SDS011;9722;48.754;8.868;2023-04-16T00:27:34;5.13;;;4.73;;
19179;SDS011;9722;48.754;8.868;2023-04-16T00:30:54;5.33;;;4.93;;
19179;SDS011;9722;48.754;8.868;2023-04-16T00:34:15;4.70;;;4.40;;
19179;SDS011;9722;48.754;8.868;2023-04-16T00:37:35;4.50;;;4.10;;
19179;SDS011;9722;48.754;8.868;2023-04-16T00:40:56;5.47;;;5.07;;
19179;SDS011;9722;48.754;8.868;2023-04-16T00:44:17;5.43;;;5.03;;
19179;SDS011;9722;48.754;8.868;2023-04-16T00:47:38;5.43;;;4.93;;
19179;SDS011;9722;48.754;8.868;2023-04-16T00:50:58;5.47;;;5.00;;
19179;SDS011;9722;48.754;8.868;2023-04-16T00:54:20;4.93;;;4.53;;
19179;SDS011;9722;48.754;8.868;2023-04-16T00:57:41;5.70;;;5.20;;
19179;SDS011;9722;48.754;8.868;2023-04-16T01:01:02;5.50;;;5.00;;
19179;SDS011;9722;48.754;8.868;2023-04-16T01:04:22;5.00;;;4.60;;
19179;SDS011;9722;48.754;8.868;2023-04-16T01:07:43;4.80;;;4.23;;
19179;SDS011;9722;48.754;8.868;2023-04-16T01:11:03;3.93;;;3.63;;
19179;SDS011;9722;48.754;8.868;2023-04-16T01:14:24;4.10;;;3.80;;
19179;SDS011;9722;48.754;8.868;2023-04-16T01:17:45;3.70;;;3.40;;
19179;SDS011;9722;48.754;8.868;2023-04-16T01:21:06;3.30;;;3.10;;
19179;SDS011;9722;48.754;8.868;2023-04-16T01:24:26;3.27;;;3.07;;
19179;SDS011;9722;48.754;8.868;2023-04-16T01:27:48;3.17;;;2.97;;
19179;SDS011;9722;48.754;8.868;2023-04-16T01:31:09;3.40;;;3.13;;
19179;SDS011;9722;48.754;8.868;2023-04-16T01:34:30;3.23;;;3.03;;
19179;SDS011;9722;48.754;8.868;2023-04-16T01:37:50;2.80;;;2.60;;
19179;SDS011;9722;48.754;8.868;2023-04-16T01:41:11;2.80;;;2.60;;
19179;SDS011;9722;48.754;8.868;2023-04-16T01:44:32;2.93;;;2.73;;
19179;SDS011;9722;48.754;8.868;2023-04-16T01:47:52;3.33;;;3.13;;
19179;SDS011;9722;48.754;8.868;2023-04-16T01:51:13;3.03;;;2.83;;
19179;SDS011;9722;48.754;8.868;2023-04-16T01:54:33;2.50;;;2.30;;
19179;SDS011;9722;48.754;8.868;2023-04-16T01:57:54;2.50;;;2.30;;
19179;SDS011;9722;48.754;8.868;2023-04-16T02:01:14;2.50;;;2.30;;
19179;SDS011;9722;48.754;8.868;2023-04-16T02:04:42;2.43;;;2.33;;
19179;SDS011;9722;48.754;8.868;2023-04-16T02:08:04;2.57;;;2.37;;
19179;SDS011;9722;48.754;8.868;2023-04-16T02:11:25;3.27;;;2.80;;
19179;SDS011;9722;48.754;8.868;2023-04-16T02:14:45;2.63;;;2.43;;
19179;SDS011;9722;48.754;8.868;2023-04-16T02:18:06;2.57;;;2.37;;
19179;SDS011;9722;48.754;8.868;2023-04-16T02:21:26;2.50;;;2.30;;
19179;SDS011;9722;48.754;8.868;2023-04-16T02:24:47;3.23;;;2.67;;
19179;SDS011;9722;48.754;8.868;2023-04-16T02:28:09;2.70;;;2.50;;
19179;SDS011;9722;48.754;8.868;2023-04-16T02:31:31;2.77;;;2.57;;
19179;SDS011;9722;48.754;8.868;2023-04-16T02:34:52;2.80;;;2.60;;
19179;SDS011;9722;48.754;8.868;2023-04-16T02:38:12;2.07;;;1.97;;
19179;SDS011;9722;48.754;8.868;2023-04-16T02:41:33;2.63;;;2.43;;
19179;SDS011;9722;48.754;8.868;2023-04-16T02:44:53;2.40;;;2.30;;
19179;SDS011;9722;48.754;8.868;2023-04-16T02:48:14;3.37;;;3.10;;
19179;SDS011;9722;48.754;8.868;2023-04-16T02:51:34;3.03;;;2.83;;
19179;SDS011;9722;48.754;8.868;2023-04-16T02:54:55;2.80;;;2.60;;
19179;SDS011;9722;48.754;8.868;2023-04-16T02:58:15;3.23;;;3.03;;
19179;SDS011;9722;48.754;8.868;2023-04-16T03:01:36;3.90;;;3.60;;
19179;SDS011;9722;48.754;8.868;2023-04-16T03:04:56;4.83;;;4.40;;
19179;SDS011;9722;48.754;8.868;2023-04-16T03:08:17;5.47;;;5.07;;
19179;SDS011;9722;48.754;8.868;2023-04-16T03:11:37;6.57;;;5.97;;
19179;SDS011;9722;48.754;8.868;2023-04-16T03:14:58;6.50;;;5.90;;
19179;SDS011;9722;48.754;8.868;2023-04-16T03:18:18;6.73;;;6.13;;
19179;SDS011;9722;48.754;8.868;2023-04-16T03:21:39;9.37;;;7.57;;
19179;SDS011;9722;48.754;8.868;2023-04-16T03:24:59;8.03;;;7.33;;
19179;SDS011;9722;48.754;8.868;2023-04-16T03:28:20;7.30;;;6.70;;
19179;SDS011;9722;48.754;8.868;2023-04-16T03:31:40;7.87;;;7.17;;
19179;SDS011;9722;48.754;8.868;2023-04-16T03:35:01;7.00;;;6.40;;
19179;SDS011;9722;48.754;8.868;2023-04-16T03:38:23;6.70;;;6.10;;
19179;SDS011;9722;48.754;8.868;2023-04-16T03:41:45;7.10;;;6.40;;
19179;SDS011;9722;48.754;8.868;2023-04-16T03:45:06;8.33;;;6.50;;
19179;SDS011;9722;48.754;8.868;2023-04-16T03:48:28;7.17;;;6.57;;
19179;SDS011;9722;48.754;8.868;2023-04-16T03:51:48;6.17;;;5.73;;
19179;SDS011;9722;48.754;8.868;2023-04-16T03:55:09;5.93;;;5.37;;
19179;SDS011;9722;48.754;8.868;2023-04-16T03:58:29;6.23;;;5.73;;
19179;SDS011;9722;48.754;8.868;2023-04-16T04:01:50;5.73;;;5.33;;
19179;SDS011;9722;48.754;8.868;2023-04-16T04:05:11;6.03;;;5.53;;
19179;SDS011;9722;48.754;8.868;2023-04-16T04:08:31;5.17;;;4.77;;
19179;SDS011;9722;48.754;8.868;2023-04-16T04:11:52;4.33;;;4.03;;
19179;SDS011;9722;48.754;8.868;2023-04-16T04:15:12;4.67;;;4.27;;
19179;SDS011;9722;48.754;8.868;2023-04-16T04:18:33;4.40;;;4.10;;
19179;SDS011;9722;48.754;8.868;2023-04-16T04:21:53;4.20;;;3.80;;
19179;SDS011;9722;48.754;8.868;2023-04-16T04:25:14;4.03;;;3.73;;
19179;SDS011;9722;48.754;8.868;2023-04-16T04:28:36;4.20;;;3.90;;
19179;SDS011;9722;48.754;8.868;2023-04-16T04:31:56;3.93;;;3.63;;
19179;SDS011;9722;48.754;8.868;2023-04-16T04:35:17;3.57;;;3.27;;
19179;SDS011;9722;48.754;8.868;2023-04-16T04:38:38;3.57;;;3.27;;
19179;SDS011;9722;48.754;8.868;2023-04-16T04:41:58;3.93;;;3.63;;
19179;SDS011;9722;48.754;8.868;2023-04-16T04:45:22;3.87;;;3.57;;
19179;SDS011;9722;48.754;8.868;2023-04-16T04:48:45;4.93;;;4.53;;
19179;SDS011;9722;48.754;8.868;2023-04-16T04:52:06;4.40;;;4.00;;
19179;SDS011;9722;48.754;8.868;2023-04-16T04:55:27;3.90;;;3.63;;
19179;SDS011;9722;48.754;8.868;2023-04-16T04:58:48;4.87;;;4.37;;
19179;SDS011;9722;48.754;8.868;2023-04-16T05:02:09;5.07;;;4.43;;
19179;SDS011;9722;48.754;8.868;2023-04-16T05:05:30;7.43;;;6.73;;
19179;SDS011;9722;48.754;8.868;2023-04-16T05:08:51;8.50;;;7.80;;
19179;SDS011;9722;48.754;8.868;2023-04-16T05:12:11;8.43;;;7.63;;
19179;SDS011;9722;48.754;8.868;2023-04-16T05:15:32;9.47;;;8.57;;
19179;SDS011;9722;48.754;8.868;2023-04-16T05:18:52;9.80;;;8.90;;
19179;SDS011;9722;48.754;8.868;2023-04-16T05:22:14;9.70;;;8.70;;
19179;SDS011;9722;48.754;8.868;2023-04-16T05:25:37;9.90;;;8.90;;
19179;SDS011;9722;48.754;8.868;2023-04-16T05:28:58;10.20;;;9.20;;
19179;SDS011;9722;48.754;8.868;2023-04-16T05:32:18;10.00;;;9.10;;
19179;SDS011;9722;48.754;8.868;2023-04-16T05:35:39;10.40;;;9.50;;
19179;SDS011;9722;48.754;8.868;2023-04-16T05:38:59;11.03;;;9.93;;
19179;SDS011;9722;48.754;8.868;2023-04-16T05:42:20;11.43;;;10.33;;
19179;SDS011;9722;48.754;8.868;2023-04-16T05:45:40;12.73;;;11.47;;
19179;SDS011;9722;48.754;8.868;2023-04-16T05:49:01;11.10;;;10.00;;
19179;SDS011;9722;48.754;8.868;2023-04-16T05:52:21;11.87;;;10.67;;
19179;SDS011;9722;48.754;8.868;2023-04-16T05:55:42;11.23;;;10.23;;
19179;SDS011;9722;48.754;8.868;2023-04-16T05:59:02;11.90;;;10.80;;
19179;SDS011;9722;48.754;8.868;2023-04-16T06:02:23;11.70;;;10.37;;
19179;SDS011;9722;48.754;8.868;2023-04-16T06:05:43;12.03;;;10.87;;
19179;SDS011;9722;48.754;8.868;2023-04-16T06:09:04;13.30;;;11.90;;
19179;SDS011;9722;48.754;8.868;2023-04-16T06:12:25;12.47;;;11.27;;
19179;SDS011;9722;48.754;8.868;2023-04-16T06:15:46;13.93;;;12.53;;
19179;SDS011;9722;48.754;8.868;2023-04-16T06:19:06;13.47;;;12.17;;
19179;SDS011;9722;48.754;8.868;2023-04-16T06:22:27;13.03;;;11.73;;
19179;SDS011;9722;48.754;8.868;2023-04-16T06:25:48;12.83;;;11.43;;
19179;SDS011;9722;48.754;8.868;2023-04-16T06:29:08;17.33;;;12.43;;
19179;SDS011;9722;48.754;8.868;2023-04-16T06:32:30;12.80;;;11.47;;
19179;SDS011;9722;48.754;8.868;2023-04-16T06:35:51;13.17;;;11.60;;
19179;SDS011;9722;48.754;8.868;2023-04-16T06:39:11;12.43;;;10.80;;
19179;SDS011;9722;48.754;8.868;2023-04-16T06:42:32;14.07;;;11.73;;
19179;SDS011;9722;48.754;8.868;2023-04-16T06:45:52;13.37;;;11.97;;
19179;SDS011;9722;48.754;8.868;2023-04-16T06:49:13;13.23;;;11.80;;
19179;SDS011;9722;48.754;8.868;2023-04-16T06:52:33;11.37;;;10.27;;
19179;SDS011;9722;48.754;8.868;2023-04-16T06:55:54;11.57;;;10.57;;
19179;SDS011;9722;48.754;8.868;2023-04-16T06:59:15;10.70;;;9.70;;
19179;SDS011;9722;48.754;8.868;2023-04-16T07:02:35;12.97;;;10.13;;
19179;SDS011;9722;48.754;8.868;2023-04-16T07:05:56;11.63;;;10.53;;
19179;SDS011;9722;48.754;8.868;2023-04-16T07:09:17;11.27;;;10.10;;
19179;SDS011;9722;48.754;8.868;2023-04-16T07:12:37;11.97;;;10.77;;
19179;SDS011;9722;48.754;8.868;2023-04-16T07:15:58;11.63;;;10.43;;
19179;SDS011;9722;48.754;8.868;2023-04-16T07:19:18;11.03;;;9.60;;
19179;SDS011;9722;48.754;8.868;2023-04-16T07:22:39;10.67;;;9.67;;
19179;SDS011;9722;48.754;8.868;2023-04-16T07:26:00;11.13;;;10.07;;
19179;SDS011;9722;48.754;8.868;2023-04-16T07:29:20;11.03;;;9.93;;
19179;SDS011;9722;48.754;8.868;2023-04-16T07:32:43;10.37;;;9.37;;
19179;SDS011;9722;48.754;8.868;2023-04-16T07:36:04;11.03;;;9.93;;
19179;SDS011;9722;48.754;8.868;2023-04-16T07:39:25;12.37;;;11.13;;
19179;SDS011;9722;48.754;8.868;2023-04-16T07:42:45;10.03;;;9.13;;
19179;SDS011;9722;48.754;8.868;2023-04-16T07:46:06;11.00;;;9.77;;
19179;SDS011;9722;48.754;8.868;2023-04-16T07:49:27;10.47;;;9.47;;
19179;SDS011;9722;48.754;8.868;2023-04-16T07:52:47;10.20;;;9.20;;
19179;SDS011;9722;48.754;8.868;2023-04-16T07:56:08;10.23;;;9.10;;
19179;SDS011;9722;48.754;8.868;2023-04-16T07:59:28;10.30;;;9.30;;
19179;SDS011;9722;48.754;8.868;2023-04-16T08:02:49;9.73;;;8.73;;
19179;SDS011;9722;48.754;8.868;2023-04-16T08:06:09;10.47;;;9.47;;
19179;SDS011;9722;48.754;8.868;2023-04-16T08:09:30;10.53;;;9.33;;
19179;SDS011;9722;48.754;8.868;2023-04-16T08:12:50;10.07;;;8.97;;
19179;SDS011;9722;48.754;8.868;2023-04-16T08:16:11;9.70;;;8.80;;
19179;SDS011;9722;48.754;8.868;2023-04-16T08:19:31;8.97;;;8.13;;
19179;SDS011;9722;48.754;8.868;2023-04-16T08:22:53;9.00;;;8.20;;
19179;SDS011;9722;48.754;8.868;2023-04-16T08:26:13;9.40;;;8.50;;
19179;SDS011;9722;48.754;8.868;2023-04-16T08:29:36;9.60;;;8.60;;
19179;SDS011;9722;48.754;8.868;2023-04-16T08:32:56;9.13;;;8.30;;
19179;SDS011;9722;48.754;8.868;2023-04-16T08:36:17;8.93;;;8.13;;
19179;SDS011;9722;48.754;8.868;2023-04-16T08:39:37;8.57;;;7.63;;
19179;SDS011;9722;48.754;8.868;2023-04-16T08:42:58;10.73;;;8.47;;
19179;SDS011;9722;48.754;8.868;2023-04-16T08:46:21;8.60;;;7.80;;
19179;SDS011;9722;48.754;8.868;2023-04-16T08:49:45;8.87;;;8.07;;
19179;SDS011;9722;48.754;8.868;2023-04-16T08:53:05;9.07;;;8.17;;
19179;SDS011;9722;48.754;8.868;2023-04-16T08:56:30;10.00;;;9.10;;
19179;SDS011;9722;48.754;8.868;2023-04-16T08:59:53;10.17;;;8.37;;
19179;SDS011;9722;48.754;8.868;2023-04-16T09:03:15;8.80;;;8.00;;
19179;SDS011;9722;48.754;8.868;2023-04-16T09:06:36;9.47;;;8.47;;
19179;SDS011;9722;48.754;8.868;2023-04-16T09:09:58;9.23;;;8.23;;
19179;SDS011;9722;48.754;8.868;2023-04-16T09:13:19;9.37;;;8.40;;
19179;SDS011;9722;48.754;8.868;2023-04-16T09:16:42;9.83;;;8.97;;
19179;SDS011;9722;48.754;8.868;2023-04-16T09:20:08;9.53;;;8.63;;
19179;SDS011;9722;48.754;8.868;2023-04-16T09:23:30;9.60;;;8.70;;
19179;SDS011;9722;48.754;8.868;2023-04-16T09:26:50;9.47;;;8.57;;
19179;SDS011;9722;48.754;8.868;2023-04-16T09:30:23;10.13;;;9.13;;
19179;SDS011;9722;48.754;8.868;2023-04-16T09:34:01;10.07;;;9.07;;
19179;SDS011;9722;48.754;8.868;2023-04-16T09:37:29;10.03;;;8.27;;
19179;SDS011;9722;48.754;8.868;2023-04-16T09:41:04;10.13;;;8.87;;
19179;SDS011;9722;48.754;8.868;2023-04-16T09:44:36;9.67;;;8.63;;
19179;SDS011;9722;48.754;8.868;2023-04-16T09:48:01;10.03;;;9.03;;
19179;SDS011;9722;48.754;8.868;2023-04-16T09:51:24;10.00;;;9.10;;
19179;SDS011;9722;48.754;8.868;2023-04-16T09:54:49;9.57;;;8.67;;
19179;SDS011;9722;48.754;8.868;2023-04-16T09:58:11;9.20;;;8.40;;
19179;SDS011;9722;48.754;8.868;2023-04-16T10:01:31;9.40;;;8.60;;
19179;SDS011;9722;48.754;8.868;2023-04-16T10:04:52;9.03;;;8.23;;
19179;SDS011;9722;48.754;8.868;2023-04-16T10:08:13;9.50;;;8.60;;
19179;SDS011;9722;48.754;8.868;2023-04-16T10:11:34;10.80;;;9.70;;
19179;SDS011;9722;48.754;8.868;2023-04-16T10:14:54;10.43;;;9.33;;
19179;SDS011;9722;48.754;8.868;2023-04-16T10:18:15;9.63;;;8.73;;
19179;SDS011;9722;48.754;8.868;2023-04-16T10:21:37;10.17;;;9.17;;
19179;SDS011;9722;48.754;8.868;2023-04-16T10:24:57;9.43;;;8.50;;
19179;SDS011;9722;48.754;8.868;2023-04-16T10:28:18;10.57;;;9.33;;
19179;SDS011;9722;48.754;8.868;2023-04-16T10:31:40;9.77;;;8.87;;
19179;SDS011;9722;48.754;8.868;2023-04-16T10:35:01;9.27;;;8.33;;
19179;SDS011;9722;48.754;8.868;2023-04-16T10:38:25;9.97;;;8.97;;
19179;SDS011;9722;48.754;8.868;2023-04-16T10:41:46;9.33;;;8.53;;
19179;SDS011;9722;48.754;8.868;2023-04-16T10:45:09;9.67;;;8.23;;
19179;SDS011;9722;48.754;8.868;2023-04-16T10:48:30;9.53;;;8.47;;
19179;SDS011;9722;48.754;8.868;2023-04-16T10:51:51;8.87;;;8.07;;
19179;SDS011;9722;48.754;8.868;2023-04-16T10:55:15;8.77;;;7.97;;
19179;SDS011;9722;48.754;8.868;2023-04-16T10:58:36;8.10;;;7.37;;
19179;SDS011;9722;48.754;8.868;2023-04-16T11:01:58;8.03;;;7.33;;
19179;SDS011;9722;48.754;8.868;2023-04-16T11:05:22;7.03;;;6.40;;
19179;SDS011;9722;48.754;8.868;2023-04-16T11:08:44;7.63;;;6.93;;
19179;SDS011;9722;48.754;8.868;2023-04-16T11:12:05;7.63;;;6.33;;
19179;SDS011;9722;48.754;8.868;2023-04-16T11:15:30;7.53;;;6.83;;
19179;SDS011;9722;48.754;8.868;2023-04-16T11:18:52;7.67;;;6.97;;
19179;SDS011;9722;48.754;8.868;2023-04-16T11:22:13;6.90;;;6.30;;
19179;SDS011;9722;48.754;8.868;2023-04-16T11:25:36;6.70;;;6.10;;
19179;SDS011;9722;48.754;8.868;2023-04-16T11:28:56;6.50;;;5.83;;
19179;SDS011;9722;48.754;8.868;2023-04-16T11:32:19;6.67;;;6.03;;
19179;SDS011;9722;48.754;8.868;2023-04-16T11:35:43;6.73;;;6.17;;
19179;SDS011;9722;48.754;8.868;2023-04-16T11:39:04;6.23;;;5.63;;
19179;SDS011;9722;48.754;8.868;2023-04-16T11:42:25;6.40;;;5.80;;
19179;SDS011;9722;48.754;8.868;2023-04-16T11:45:57;6.40;;;5.90;;
19179;SDS011;9722;48.754;8.868;2023-04-16T11:49:26;6.47;;;5.87;;
19179;SDS011;9722;48.754;8.868;2023-04-16T11:52:50;6.27;;;5.73;;
19179;SDS011;9722;48.754;8.868;2023-04-16T11:56:12;6.00;;;5.50;;
19179;SDS011;9722;48.754;8.868;2023-04-16T11:59:33;6.77;;;6.17;;
19179;SDS011;9722;48.754;8.868;2023-04-16T12:02:55;5.73;;;5.23;;
19179;SDS011;9722;48.754;8.868;2023-04-16T12:06:16;4.43;;;4.03;;
19179;SDS011;9722;48.754;8.868;2023-04-16T12:09:37;4.67;;;4.27;;
19179;SDS011;9722;48.754;8.868;2023-04-16T12:13:09;4.20;;;3.90;;
19179;SDS011;9722;48.754;8.868;2023-04-16T12:16:33;3.60;;;3.30;;
19179;SDS011;9722;48.754;8.868;2023-04-16T12:20:01;4.00;;;3.70;;
19179;SDS011;9722;48.754;8.868;2023-04-16T12:23:30;4.60;;;3.80;;
19179;SDS011;9722;48.754;8.868;2023-04-16T12:26:52;2.90;;;2.70;;
19179;SDS011;9722;48.754;8.868;2023-04-16T12:30:16;2.57;;;2.37;;
19179;SDS011;9722;48.754;8.868;2023-04-16T12:33:38;2.30;;;2.10;;
19179;SDS011;9722;48.754;8.868;2023-04-16T12:37:04;2.40;;;2.30;;
19179;SDS011;9722;48.754;8.868;2023-04-16T12:40:28;2.80;;;2.60;;
19179;SDS011;9722;48.754;8.868;2023-04-16T12:43:49;2.60;;;2.40;;
19179;SDS011;9722;48.754;8.868;2023-04-16T12:47:09;2.80;;;2.60;;
19179;SDS011;9722;48.754;8.868;2023-04-16T12:50:30;4.63;;;3.40;;
19179;SDS011;9722;48.754;8.868;2023-04-16T12:53:51;3.17;;;2.87;;
19179;SDS011;9722;48.754;8.868;2023-04-16T12:57:11;5.47;;;4.37;;
19179;SDS011;9722;48.754;8.868;2023-04-16T13:00:32;2.97;;;2.77;;
19179;SDS011;9722;48.754;8.868;2023-04-16T13:03:52;2.83;;;2.63;;
19179;SDS011;9722;48.754;8.868;2023-04-16T13:07:13;2.60;;;2.47;;
19179;SDS011;9722;48.754;8.868;2023-04-16T13:10:34;3.00;;;2.80;;
19179;SDS011;9722;48.754;8.868;2023-04-16T13:13:54;3.27;;;2.70;;
19179;SDS011;9722;48.754;8.868;2023-04-16T13:17:15;2.37;;;2.17;;
19179;SDS011;9722;48.754;8.868;2023-04-16T13:20:35;5.60;;;2.00;;
19179;SDS011;9722;48.754;8.868;2023-04-16T13:23:56;2.70;;;2.37;;
19179;SDS011;9722;48.754;8.868;2023-04-16T13:27:17;2.50;;;2.30;;
19179;SDS011;9722;48.754;8.868;2023-04-16T13:30:37;2.67;;;2.47;;
19179;SDS011;9722;48.754;8.868;2023-04-16T13:33:58;2.77;;;2.57;;
19179;SDS011;9722;48.754;8.868;2023-04-16T13:37:18;2.43;;;2.23;;
19179;SDS011;9722;48.754;8.868;2023-04-16T13:40:39;2.40;;;2.20;;
19179;SDS011;9722;48.754;8.868;2023-04-16T13:43:59;2.77;;;2.57;;
19179;SDS011;9722;48.754;8.868;2023-04-16T13:47:20;2.43;;;2.23;;
19179;SDS011;9722;48.754;8.868;2023-04-16T13:50:41;2.77;;;2.57;;
19179;SDS011;9722;48.754;8.868;2023-04-16T13:54:01;3.00;;;2.80;;
19179;SDS011;9722;48.754;8.868;2023-04-16T13:57:22;2.60;;;2.40;;
19179;SDS011;9722;48.754;8.868;2023-04-16T14:00:42;3.37;;;3.10;;
19179;SDS011;9722;48.754;8.868;2023-04-16T14:04:03;2.90;;;2.70;;
19179;SDS011;9722;48.754;8.868;2023-04-16T14:07:25;3.70;;;3.23;;
19179;SDS011;9722;48.754;8.868;2023-04-16T14:10:46;3.73;;;3.43;;
19179;SDS011;9722;48.754;8.868;2023-04-16T14:14:07;3.40;;;3.10;;
19179;SDS011;9722;48.754;8.868;2023-04-16T14:17:27;3.40;;;3.10;;
19179;SDS011;9722;48.754;8.868;2023-04-16T14:20:48;3.80;;;3.50;;
19179;SDS011;9722;48.754;8.868;2023-04-16T14:24:08;4.07;;;3.77;;
19179;SDS011;9722;48.754;8.868;2023-04-16T14:27:29;4.40;;;4.00;;
19179;SDS011;9722;48.754;8.868;2023-04-16T14:30:50;4.20;;;3.90;;
19179;SDS011;9722;48.754;8.868;2023-04-16T14:34:11;4.70;;;4.40;;
19179;SDS011;9722;48.754;8.868;2023-04-16T14:37:32;4.27;;;3.97;;
19179;SDS011;9722;48.754;8.868;2023-04-16T14:40:55;4.20;;;3.80;;
19179;SDS011;9722;48.754;8.868;2023-04-16T14:44:15;3.60;;;3.30;;
19179;SDS011;9722;48.754;8.868;2023-04-16T14:47:36;4.07;;;3.77;;
19179;SDS011;9722;48.754;8.868;2023-04-16T14:51:01;4.33;;;3.93;;
19179;SDS011;9722;48.754;8.868;2023-04-16T14:54:22;5.40;;;3.63;;
19179;SDS011;9722;48.754;8.868;2023-04-16T14:57:42;3.87;;;3.57;;
19179;SDS011;9722;48.754;8.868;2023-04-16T15:01:03;3.90;;;3.60;;
19179;SDS011;9722;48.754;8.868;2023-04-16T15:04:24;3.57;;;3.37;;
19179;SDS011;9722;48.754;8.868;2023-04-16T15:07:44;4.20;;;3.90;;
19179;SDS011;9722;48.754;8.868;2023-04-16T15:11:05;3.77;;;3.47;;
19179;SDS011;9722;48.754;8.868;2023-04-16T15:14:25;4.63;;;4.23;;
19179;SDS011;9722;48.754;8.868;2023-04-16T15:17:46;4.63;;;4.27;;
19179;SDS011;9722;48.754;8.868;2023-04-16T15:21:06;4.53;;;4.23;;
19179;SDS011;9722;48.754;8.868;2023-04-16T15:24:27;5.00;;;4.50;;
19179;SDS011;9722;48.754;8.868;2023-04-16T15:27:47;4.67;;;4.27;;
19179;SDS011;9722;48.754;8.868;2023-04-16T15:31:08;5.00;;;4.60;;
19179;SDS011;9722;48.754;8.868;2023-04-16T15:34:29;5.80;;;5.37;;
19179;SDS011;9722;48.754;8.868;2023-04-16T15:37:49;5.60;;;5.13;;
19179;SDS011;9722;48.754;8.868;2023-04-16T15:41:11;6.40;;;5.80;;
19179;SDS011;9722;48.754;8.868;2023-04-16T15:44:32;7.30;;;6.60;;
19179;SDS011;9722;48.754;8.868;2023-04-16T15:47:56;7.50;;;6.80;;
19179;SDS011;9722;48.754;8.868;2023-04-16T15:51:17;7.43;;;6.73;;
19179;SDS011;9722;48.754;8.868;2023-04-16T15:54:37;8.10;;;7.30;;
19179;SDS011;9722;48.754;8.868;2023-04-16T15:57:58;8.40;;;7.70;;
19179;SDS011;9722;48.754;8.868;2023-04-16T16:01:18;8.23;;;7.50;;
19179;SDS011;9722;48.754;8.868;2023-04-16T16:04:39;7.63;;;7.03;;
19179;SDS011;9722;48.754;8.868;2023-04-16T16:08:04;7.87;;;7.07;;
19179;SDS011;9722;48.754;8.868;2023-04-16T16:11:25;8.00;;;7.23;;
19179;SDS011;9722;48.754;8.868;2023-04-16T16:14:46;7.30;;;6.70;;
19179;SDS011;9722;48.754;8.868;2023-04-16T16:18:06;7.90;;;7.10;;
19179;SDS011;9722;48.754;8.868;2023-04-16T16:21:28;8.30;;;7.60;;
19179;SDS011;9722;48.754;8.868;2023-04-16T16:24:49;8.43;;;7.63;;
19179;SDS011;9722;48.754;8.868;2023-04-16T16:28:10;7.37;;;6.70;;
19179;SDS011;9722;48.754;8.868;2023-04-16T16:31:31;8.87;;;8.10;;
19179;SDS011;9722;48.754;8.868;2023-04-16T16:34:52;9.87;;;9.07;;
19179;SDS011;9722;48.754;8.868;2023-04-16T16:38:12;9.33;;;8.40;;
19179;SDS011;9722;48.754;8.868;2023-04-16T16:41:33;10.07;;;9.17;;
19179;SDS011;9722;48.754;8.868;2023-04-16T16:44:56;11.77;;;10.63;;
19179;SDS011;9722;48.754;8.868;2023-04-16T16:48:17;10.33;;;9.33;;
19179;SDS011;9722;48.754;8.868;2023-04-16T16:51:37;11.33;;;10.30;;
19179;SDS011;9722;48.754;8.868;2023-04-16T16:54:58;11.27;;;10.17;;
19179;SDS011;9722;48.754;8.868;2023-04-16T16:58:18;11.27;;;10.17;;
19179;SDS011;9722;48.754;8.868;2023-04-16T17:01:39;11.43;;;9.93;;
19179;SDS011;9722;48.754;8.868;2023-04-16T17:05:00;12.80;;;10.57;;
19179;SDS011;9722;48.754;8.868;2023-04-16T17:08:20;12.33;;;11.13;;
19179;SDS011;9722;48.754;8.868;2023-04-16T17:11:41;10.20;;;9.30;;
19179;SDS011;9722;48.754;8.868;2023-04-16T17:15:01;11.67;;;10.67;;
19179;SDS011;9722;48.754;8.868;2023-04-16T17:18:22;12.07;;;10.90;;
19179;SDS011;9722;48.754;8.868;2023-04-16T17:21:42;12.43;;;11.33;;
19179;SDS011;9722;48.754;8.868;2023-04-16T17:25:03;12.87;;;11.67;;
19179;SDS011;9722;48.754;8.868;2023-04-16T17:28:24;14.67;;;12.97;;
19179;SDS011;9722;48.754;8.868;2023-04-16T17:31:45;15.47;;;13.97;;
19179;SDS011;9722;48.754;8.868;2023-04-16T17:35:05;15.63;;;13.93;;
19179;SDS011;9722;48.754;8.868;2023-04-16T17:38:28;15.87;;;14.20;;
19179;SDS011;9722;48.754;8.868;2023-04-16T17:41:48;15.37;;;13.87;;
19179;SDS011;9722;48.754;8.868;2023-04-16T17:45:13;15.43;;;13.83;;
19179;SDS011;9722;48.754;8.868;2023-04-16T17:48:33;15.13;;;13.73;;
19179;SDS011;9722;48.754;8.868;2023-04-16T17:51:54;15.03;;;13.57;;
19179;SDS011;9722;48.754;8.868;2023-04-16T17:55:15;14.03;;;12.67;;
19179;SDS011;9722;48.754;8.868;2023-04-16T17:58:35;14.00;;;12.60;;
19179;SDS011;9722;48.754;8.868;2023-04-16T18:01:56;16.23;;;12.67;;
19179;SDS011;9722;48.754;8.868;2023-04-16T18:05:16;14.67;;;13.17;;
19179;SDS011;9722;48.754;8.868;2023-04-16T18:08:38;14.10;;;12.70;;
19179;SDS011;9722;48.754;8.868;2023-04-16T18:11:58;13.27;;;12.03;;
19179;SDS011;9722;48.754;8.868;2023-04-16T18:15:19;13.63;;;12.43;;
19179;SDS011;9722;48.754;8.868;2023-04-16T18:18:39;15.40;;;13.80;;
19179;SDS011;9722;48.754;8.868;2023-04-16T18:22:00;14.07;;;12.67;;
19179;SDS011;9722;48.754;8.868;2023-04-16T18:25:20;13.33;;;12.13;;
19179;SDS011;9722;48.754;8.868;2023-04-16T18:28:41;13.83;;;12.50;;
19179;SDS011;9722;48.754;8.868;2023-04-16T18:32:01;15.13;;;12.80;;
19179;SDS011;9722;48.754;8.868;2023-04-16T18:35:22;14.17;;;12.80;;
19179;SDS011;9722;48.754;8.868;2023-04-16T18:38:42;15.47;;;13.83;;
19179;SDS011;9722;48.754;8.868;2023-04-16T18:42:03;15.47;;;13.87;;
19179;SDS011;9722;48.754;8.868;2023-04-16T18:45:24;15.60;;;13.50;;
19179;SDS011;9722;48.754;8.868;2023-04-16T18:48:44;19.53;;;15.57;;
19179;SDS011;9722;48.754;8.868;2023-04-16T18:52:05;17.43;;;14.50;;
19179;SDS011;9722;48.754;8.868;2023-04-16T18:55:25;17.63;;;15.67;;
19179;SDS011;9722;48.754;8.868;2023-04-16T18:58:46;16.80;;;15.13;;
19179;SDS011;9722;48.754;8.868;2023-04-16T19:02:06;16.77;;;15.03;;
19179;SDS011;9722;48.754;8.868;2023-04-16T19:05:27;16.10;;;14.40;;
19179;SDS011;9722;48.754;8.868;2023-04-16T19:08:48;16.33;;;14.63;;
19179;SDS011;9722;48.754;8.868;2023-04-16T19:12:08;16.10;;;14.33;;
19179;SDS011;9722;48.754;8.868;2023-04-16T19:15:29;16.43;;;14.87;;
19179;SDS011;9722;48.754;8.868;2023-04-16T19:18:49;16.73;;;14.97;;
19179;SDS011;9722;48.754;8.868;2023-04-16T19:22:10;16.60;;;14.10;;
19179;SDS011;9722;48.754;8.868;2023-04-16T19:25:31;17.00;;;14.57;;
19179;SDS011;9722;48.754;8.868;2023-04-16T19:28:52;16.53;;;14.93;;
19179;SDS011;9722;48.754;8.868;2023-04-16T19:32:12;15.77;;;14.23;;
19179;SDS011;9722;48.754;8.868;2023-04-16T19:35:33;16.00;;;14.50;;
19179;SDS011;9722;48.754;8.868;2023-04-16T19:38:53;15.77;;;14.13;;
19179;SDS011;9722;48.754;8.868;2023-04-16T19:42:14;15.97;;;14.33;;
19179;SDS011;9722;48.754;8.868;2023-04-16T19:45:34;15.10;;;13.70;;
19179;SDS011;9722;48.754;8.868;2023-04-16T19:48:55;15.40;;;13.80;;
19179;SDS011;9722;48.754;8.868;2023-04-16T19:52:15;15.00;;;13.60;;
19179;SDS011;9722;48.754;8.868;2023-04-16T19:55:39;15.73;;;14.23;;
19179;SDS011;9722;48.754;8.868;2023-04-16T19:59:00;14.83;;;13.33;;
19179;SDS011;9722;48.754;8.868;2023-04-16T20:02:21;16.07;;;14.10;;
19179;SDS011;9722;48.754;8.868;2023-04-16T20:05:41;15.57;;;13.97;;
19179;SDS011;9722;48.754;8.868;2023-04-16T20:09:02;15.77;;;14.03;;
19179;SDS011;9722;48.754;8.868;2023-04-16T20:12:23;14.93;;;13.43;;
19179;SDS011;9722;48.754;8.868;2023-04-16T20:15:44;15.27;;;13.47;;
19179;SDS011;9722;48.754;8.868;2023-04-16T20:19:06;14.57;;;13.27;;